Главная страница
METAR-TAF:

METAR-TAF

Аэропорты :

Международный аэропорт имени Джулиуса Ньерере

Дар-эс-Салам, Танзания

широта: 06-52S, долгота: 039-12E, высота над уровнем моря: 55 м

Текущие метеонаблюдения

Эта сводка был подготовлена 1 час и 5 минут назад, в 05:00 UTC
Штиль
Температура 25°C
Влажность 83%
Давление 1017 hPa
Видимость 10 км и более
небольшая облачность на высоте 2000 фута

METAR: HTDA 230500Z 00000KT 9999 FEW020 25/22 Q1017 NOSIG

Время: 09:05 (06:05 UTC)

Прогноз

Эта сводка был подготовлена 1 час и 5 минут назад, в 05:00 UTC
Прогноз действительный с 23-го 06 UTC до 24-го 12 UTC
Ветер Узел от северный
Видимость 10 км и более
Отдельные облака на высоте 1700 фута
изменения
С 23-го 08 UTC до 23-го 11 UTC
Ветер 10 Узел от восточно-юго-восточный
Рассеянная облачность на высоте 2300 фута
изменения
С 23-го 15 UTC до 23-го 18 UTC
небольшая облачность на высоте 2000 фута

TAF: HTDA 230500Z 2306/2412 00000KT 9999 SCT017 BECMG 2308/2311 12010KT BKN023 BECMG 2315/2318 FEW020

Метеонаблюдения и прогнозы для более 4000 аэропортов (сводки METAR и TAF).

Имеющиеся станции представлены на карте желтыми и красными точками.

Чтобы увидеть название станции, наведите на нее мышь.

Затем щелкните, чтобы увидеть метеонаблюдения и метеопрогнозы.

Управление картой: чтобы увеличить масштаб, щелкните зеленые кнопки с черным крестиком; чтобы уменьшить масштаб, щелкните зеленую кнопку с тире; для просмотра соседних карт щелкайте зеленые стрелки.


METAR-TAF: